Time;durP1;ratioP1;P1;durP2;ratioP2;P2;SDS_P1;SDS_P2;PMS_P1;PMS_P2;Temp;Humidity;BMP_temperature;BMP_pressure;BME280_temperature;BME280_humidity;BME280_pressure;Samples;Min_cycle;Max_cycle;Signal;HPM_P1;HPM_P2
2021/07/10 00:01:13;;;;;;;;;16.25;13.50;;;;;24.71;41.99;101548.34;5076527;28;51030;-51
2021/07/10 00:03:39;;;;;;;;;16.25;13.00;;;;;24.69;41.96;101543.03;5067961;28;51112;-50
2021/07/10 00:06:05;;;;;;;;;14.00;12.00;;;;;24.69;42.38;101534.72;5056322;28;51116;-51
2021/07/10 00:08:30;;;;;;;;;11.00;11.00;;;;;24.69;42.19;101540.25;5056070;28;51035;-50
2021/07/10 00:10:56;;;;;;;;;13.00;9.75;;;;;24.68;42.20;101534.94;5056426;28;50854;-48
2021/07/10 00:13:21;;;;;;;;;11.25;11.25;;;;;24.69;42.05;101531.09;5056711;28;51714;-55
2021/07/10 00:15:46;;;;;;;;;15.00;11.00;;;;;24.68;42.15;101534.94;5056587;28;51045;-50
2021/07/10 00:18:12;;;;;;;;;11.00;9.75;;;;;24.68;42.17;101543.25;5056530;28;51124;-50
2021/07/10 00:20:38;;;;;;;;;12.25;10.50;;;;;24.67;41.93;101538.81;5056107;28;51050;-50
2021/07/10 00:23:03;;;;;;;;;11.00;10.25;;;;;24.68;42.18;101540.50;5056026;28;51217;-51
2021/07/10 00:25:29;;;;;;;;;13.00;10.25;;;;;24.67;42.16;101541.56;5056214;28;51044;-52
2021/07/10 00:27:54;;;;;;;;;10.50;9.75;;;;;24.65;41.98;101518.81;5056109;28;52571;-47
2021/07/10 00:30:21;;;;;;;;;12.25;11.75;;;;;24.64;42.40;101514.34;5056331;28;50988;-50
2021/07/10 00:32:47;;;;;;;;;8.25;8.25;;;;;24.65;42.29;101513.28;5056347;28;51009;-51
2021/07/10 00:35:15;;;;;;;;;9.00;9.00;;;;;24.64;42.35;101508.81;5056286;28;51176;-49
2021/07/10 00:37:40;;;;;;;;;10.25;8.00;;;;;24.63;42.37;101509.91;5055599;28;51335;-48
2021/07/10 00:40:08;;;;;;;;;15.00;11.00;;;;;24.63;42.52;101504.34;5055804;28;51040;-51
2021/07/10 00:42:34;;;;;;;;;12.00;10.00;;;;;24.62;42.72;101500.75;5055976;28;51202;-53
2021/07/10 00:45:00;;;;;;;;;10.75;9.00;;;;;24.61;42.44;101495.44;5055898;28;51163;-52
2021/07/10 00:47:26;;;;;;;;;10.25;10.25;;;;;24.61;42.58;101498.22;5055774;28;51521;-52
2021/07/10 00:49:52;;;;;;;;;10.75;9.00;;;;;24.60;42.54;101496.53;5055838;28;50980;-50
2021/07/10 00:52:17;;;;;;;;;10.50;8.25;;;;;24.60;42.40;101488.22;5055698;28;50918;-50
2021/07/10 00:54:42;;;;;;;;;9.75;9.75;;;;;24.60;42.62;101502.06;5055560;28;50933;-48
2021/07/10 00:57:09;;;;;;;;;11.00;11.00;;;;;24.60;42.69;101496.53;5055251;28;52630;-51
2021/07/10 00:59:35;;;;;;;;;8.25;7.75;;;;;24.60;42.60;101493.75;5055719;28;51008;-50
2021/07/10 01:02:00;;;;;;;;;11.00;11.00;;;;;24.59;42.99;101487.34;5054309;28;51107;-49
2021/07/10 01:04:26;;;;;;;;;9.50;9.50;;;;;24.58;42.34;101482.03;5071488;28;50973;-47
2021/07/10 01:06:51;;;;;;;;;8.25;8.00;;;;;24.58;42.68;101480.09;5075821;28;51169;-52
2021/07/10 01:09:18;;;;;;;;;11.50;9.75;;;;;24.58;42.45;101477.34;5075870;28;50968;-51
2021/07/10 01:11:44;;;;;;;;;8.50;8.00;;;;;24.57;42.81;101478.41;5075948;28;51019;-50
2021/07/10 01:14:09;;;;;;;;;8.50;7.00;;;;;24.58;42.59;101473.72;5076414;28;51543;-49
2021/07/10 01:16:36;;;;;;;;;9.00;8.00;;;;;24.58;42.79;101465.41;5075632;28;51015;-52
2021/07/10 01:19:01;;;;;;;;;8.50;8.50;;;;;24.57;42.61;101463.72;5075565;28;51383;-52
2021/07/10 01:21:27;;;;;;;;;11.00;8.75;;;;;24.57;42.72;101463.72;5076127;27;51127;-50
2021/07/10 01:23:52;;;;;;;;;13.00;9.75;;;;;24.56;42.57;101449.03;5082379;28;51063;-50
2021/07/10 01:26:19;;;;;;;;;9.00;8.25;;;;;24.55;42.86;101452.03;5082112;28;51231;-52
2021/07/10 01:28:44;;;;;;;;;9.00;7.00;;;;;24.56;42.58;101448.19;5082580;28;51038;-52
2021/07/10 01:31:10;;;;;;;;;8.50;7.25;;;;;24.55;42.43;101441.81;5082626;28;51279;-52
2021/07/10 01:33:36;;;;;;;;;9.50;9.50;;;;;24.55;42.69;101425.19;5082450;28;51411;-48
2021/07/10 01:36:02;;;;;;;;;9.50;7.50;;;;;24.54;42.58;101425.44;5081879;28;51079;-52
2021/07/10 01:38:28;;;;;;;;;10.00;8.75;;;;;24.53;42.58;101421.81;5082319;28;51027;-50
2021/07/10 01:40:53;;;;;;;;;9.00;9.00;;;;;24.53;42.64;101424.59;5082260;28;51515;-50
2021/07/10 01:43:19;;;;;;;;;9.00;9.00;;;;;24.54;42.99;101417.13;5082455;28;51182;-49
2021/07/10 01:45:44;;;;;;;;;10.50;9.25;;;;;24.53;43.02;101419.06;5081801;28;51805;-50
2021/07/10 01:48:13;;;;;;;;;11.50;10.00;;;;;24.52;42.47;101410.97;5082226;28;51182;-50
2021/07/10 01:50:42;;;;;;;;;11.75;10.50;;;;;24.53;42.86;101410.75;5082126;28;51064;-50
2021/07/10 01:53:10;;;;;;;;;13.25;10.25;;;;;24.52;42.78;101400.75;5082122;28;51118;-51
2021/07/10 01:55:35;;;;;;;;;11.00;10.00;;;;;24.53;42.54;101399.66;5081782;28;51095;-52
2021/07/10 01:58:02;;;;;;;;;11.25;10.00;;;;;24.51;42.71;101393.53;5081373;28;51138;-51
2021/07/10 02:00:31;;;;;;;;;11.50;9.50;;;;;24.52;42.45;101399.91;5081838;28;50967;-48
2021/07/10 02:02:57;;;;;;;;;10.00;10.00;;;;;24.50;42.95;101391.84;5079062;28;51323;-48
2021/07/10 02:05:26;;;;;;;;;10.50;8.00;;;;;24.51;42.56;101395.44;5061108;28;51103;-52
2021/07/10 02:07:52;;;;;;;;;8.00;7.00;;;;;24.50;43.02;101386.28;5061486;28;51101;-49
2021/07/10 02:10:19;;;;;;;;;10.00;9.50;;;;;24.48;42.83;101391.19;5061463;28;51119;-48
2021/07/10 02:12:47;;;;;;;;;11.25;10.50;;;;;24.47;42.73;101381.22;5062146;28;51189;-51
2021/07/10 02:15:14;;;;;;;;;8.25;6.50;;;;;24.46;42.85;101379.53;5061252;28;51053;-50
2021/07/10 02:17:42;;;;;;;;;8.75;7.50;;;;;24.47;42.52;101375.66;5061727;28;51392;-50
2021/07/10 02:20:08;;;;;;;;;8.50;8.50;;;;;24.46;42.82;101376.75;5061301;28;51073;-49
2021/07/10 02:22:34;;;;;;;;;9.25;7.25;;;;;24.46;43.04;101385.91;5061385;28;50975;-48
2021/07/10 02:24:59;;;;;;;;;7.75;7.75;;;;;24.46;42.88;101379.53;5061193;28;50944;-46
2021/07/10 02:27:26;;;;;;;;;10.50;8.50;;;;;24.45;42.62;101372.31;5061363;28;51143;-49
2021/07/10 02:29:52;;;;;;;;;10.50;9.75;;;;;24.44;43.08;101379.75;5061251;28;51162;-49
2021/07/10 02:32:17;;;;;;;;;8.50;8.25;;;;;24.44;42.82;101376.16;5061650;28;51031;-50
2021/07/10 02:34:42;;;;;;;;;7.25;6.00;;;;;24.44;42.97;101376.16;5057581;28;51719;-50
2021/07/10 02:37:08;;;;;;;;;7.25;7.25;;;;;24.43;43.00;101364.22;5058354;28;51099;-49
2021/07/10 02:39:33;;;;;;;;;8.00;7.75;;;;;24.43;42.90;101363.38;5058249;28;51712;-51
2021/07/10 02:41:58;;;;;;;;;10.50;9.50;;;;;24.43;42.94;101368.94;5058167;28;51262;-49
2021/07/10 02:44:24;;;;;;;;;10.25;10.25;;;;;24.42;42.75;101364.47;5057902;28;51790;-47
2021/07/10 02:46:49;;;;;;;;;9.25;9.00;;;;;24.42;43.08;101361.72;5057968;28;51219;-50
2021/07/10 02:49:14;;;;;;;;;11.00;10.25;;;;;24.42;42.86;101359.78;5057788;28;51193;-48
2021/07/10 02:51:40;;;;;;;;;8.00;7.25;;;;;24.41;43.38;101357.25;5058194;28;51191;-49
2021/07/10 02:54:05;;;;;;;;;8.50;8.50;;;;;24.41;42.96;101365.56;5057520;28;52767;-48
2021/07/10 02:56:31;;;;;;;;;7.00;6.75;;;;;24.41;43.16;101357.25;5057585;28;51007;-49
2021/07/10 02:58:56;;;;;;;;;9.00;7.75;;;;;24.40;43.22;101355.56;5058204;28;51065;-47
2021/07/10 03:01:22;;;;;;;;;11.25;9.75;;;;;24.39;43.23;101351.94;5058113;28;51018;-49
2021/07/10 03:03:47;;;;;;;;;10.50;9.00;;;;;24.39;43.29;101340.88;5067422;28;50988;-49
2021/07/10 03:06:13;;;;;;;;;11.75;9.00;;;;;24.40;43.49;101347.25;5077856;28;50983;-49
2021/07/10 03:08:39;;;;;;;;;6.50;6.50;;;;;24.38;43.38;101335.56;5077732;28;50973;-49
2021/07/10 03:11:05;;;;;;;;;8.25;8.00;;;;;24.38;43.41;101330.84;5078051;28;51393;-51
2021/07/10 03:13:31;;;;;;;;;7.75;7.50;;;;;24.39;43.46;101335.34;5077681;28;51046;-49
2021/07/10 03:15:56;;;;;;;;;8.00;8.00;;;;;24.37;43.44;101337.47;5077972;28;51119;-50
2021/07/10 03:18:22;;;;;;;;;8.00;8.00;;;;;24.37;43.40;101331.09;5077989;28;51189;-51
2021/07/10 03:20:47;;;;;;;;;8.50;8.50;;;;;24.37;43.26;101336.63;5077992;28;51270;-49
2021/07/10 03:23:13;;;;;;;;;8.75;7.00;;;;;24.35;43.40;101333.25;5077531;28;51123;-49
2021/07/10 03:25:38;;;;;;;;;8.25;8.25;;;;;24.34;43.40;101321.34;5077184;28;51190;-45
2021/07/10 03:28:04;;;;;;;;;7.50;7.50;;;;;24.34;43.38;101326.88;5077786;28;51186;-50
2021/07/10 03:30:29;;;;;;;;;10.00;7.75;;;;;24.34;43.52;101334.34;5078131;28;51015;-48
2021/07/10 03:32:55;;;;;;;;;11.25;6.50;;;;;24.33;43.56;101322.44;5077432;28;51516;-47
2021/07/10 03:35:22;;;;;;;;;9.00;9.00;;;;;24.34;43.76;101323.28;5077413;28;51166;-51
2021/07/10 03:37:49;;;;;;;;;7.75;7.75;;;;;24.33;43.31;101321.59;5077573;28;50887;-53
2021/07/10 03:40:17;;;;;;;;;9.00;7.75;;;;;24.32;43.71;101326.28;5077635;28;51190;-51
2021/07/10 03:42:43;;;;;;;;;8.00;8.00;;;;;24.31;43.88;101321.81;5077196;28;51847;-49
2021/07/10 03:45:11;;;;;;;;;7.25;7.00;;;;;24.30;43.96;101322.88;5077017;28;51088;-49
2021/07/10 03:47:37;;;;;;;;;7.75;7.25;;;;;24.30;43.99;101325.66;5077437;28;51059;-50
2021/07/10 03:50:07;;;;;;;;;7.25;7.00;;;;;24.30;43.70;101324.81;5077588;28;51365;-49
2021/07/10 03:52:33;;;;;;;;;8.50;7.00;;;;;24.30;43.71;101327.56;5077249;28;51940;-49
2021/07/10 03:55:00;;;;;;;;;10.00;9.25;;;;;24.29;43.70;101334.19;5076712;28;51191;-51
2021/07/10 03:57:27;;;;;;;;;9.75;7.75;;;;;24.28;43.99;101322.28;5077126;28;51060;-49
2021/07/10 03:59:52;;;;;;;;;6.00;6.00;;;;;24.27;43.77;101317.78;5059117;28;51013;-53
2021/07/10 04:02:17;;;;;;;;;7.50;6.25;;;;;24.27;43.79;101317.78;5076983;28;50997;-48
2021/07/10 04:04:43;;;;;;;;;8.00;8.00;;;;;24.27;43.49;101322.50;5058814;28;51264;-50
2021/07/10 04:07:08;;;;;;;;;6.25;6.25;;;;;24.26;43.71;101323.56;5056599;28;50946;-50
2021/07/10 04:09:33;;;;;;;;;6.75;6.50;;;;;24.26;44.09;101323.56;5056920;28;50933;-48
2021/07/10 04:11:58;;;;;;;;;6.00;6.00;;;;;24.24;43.78;101314.66;5056267;28;51145;-48
2021/07/10 04:14:25;;;;;;;;;8.75;7.00;;;;;24.24;44.29;101317.44;5056746;28;50925;-50
2021/07/10 04:16:51;;;;;;;;;9.00;7.75;;;;;24.24;43.64;101322.97;5056788;28;51033;-51
2021/07/10 04:19:16;;;;;;;;;8.50;7.00;;;;;24.24;43.83;101325.75;5056964;28;51043;-50
2021/07/10 04:21:41;;;;;;;;;8.25;6.50;;;;;24.22;44.07;101325.97;5056400;28;51342;-51
2021/07/10 04:24:07;;;;;;;;;10.00;10.00;;;;;24.23;43.97;101330.44;5056525;28;51005;-52
2021/07/10 04:26:32;;;;;;;;;7.00;7.00;;;;;24.21;44.02;101310.44;5056554;28;51159;-48
2021/07/10 04:28:57;;;;;;;;;8.75;8.25;;;;;24.21;44.10;101315.16;5056702;28;52097;-47
2021/07/10 04:31:23;;;;;;;;;9.50;6.50;;;;;24.21;44.39;101315.16;5056221;28;58878;-50
2021/07/10 04:33:48;;;;;;;;;9.25;9.25;;;;;24.21;43.68;101324.28;5056400;28;51015;-51
2021/07/10 04:36:13;;;;;;;;;8.00;8.00;;;;;24.19;44.20;101313.47;5069714;28;51276;-49
2021/07/10 04:38:39;;;;;;;;;8.50;8.00;;;;;24.20;44.22;101308.78;5076568;28;51018;-50
2021/07/10 04:41:08;;;;;;;;;10.75;9.00;;;;;24.20;44.10;101314.31;5076432;28;51881;-51
2021/07/10 04:43:35;;;;;;;;;9.00;9.00;;;;;24.19;44.33;101320.91;5076745;28;51074;-52
2021/07/10 04:46:01;;;;;;;;;6.75;6.75;;;;;24.17;44.27;101326.66;5076476;28;51234;-51
2021/07/10 04:48:27;;;;;;;;;7.25;7.00;;;;;24.18;44.57;101328.38;5076830;28;51411;-47
2021/07/10 04:50:53;;;;;;;;;8.75;8.75;;;;;24.17;44.16;101326.66;5076574;28;51717;-46
2021/07/10 04:53:18;;;;;;;;;10.50;10.50;;;;;24.16;44.31;101326.91;5076187;28;50979;-48
2021/07/10 04:55:43;;;;;;;;;7.50;7.00;;;;;24.16;44.00;101324.13;5076352;28;51168;-51
2021/07/10 04:58:09;;;;;;;;;6.25;6.25;;;;;24.16;43.98;101322.22;5075877;28;50999;-50
2021/07/10 05:00:35;;;;;;;;;9.75;8.75;;;;;24.16;44.41;101324.13;5076379;28;51082;-49
2021/07/10 05:03:00;;;;;;;;;7.75;7.75;;;;;24.16;44.13;101324.13;5072668;28;51018;-48
2021/07/10 05:05:26;;;;;;;;;8.25;6.00;;;;;24.16;44.21;101333.28;5055840;28;51123;-50
2021/07/10 05:07:51;;;;;;;;;7.00;7.00;;;;;24.16;44.31;101326.91;5056004;28;51138;-46
2021/07/10 05:10:16;;;;;;;;;6.75;6.00;;;;;24.16;44.29;101329.69;5055744;28;55061;-51
2021/07/10 05:12:42;;;;;;;;;7.25;7.00;;;;;24.15;44.59;101328.00;5055945;28;51075;-49
2021/07/10 05:15:08;;;;;;;;;8.00;8.00;;;;;24.14;44.71;101334.59;5056071;28;50968;-51
2021/07/10 05:17:34;;;;;;;;;7.00;6.25;;;;;24.14;44.69;101337.38;5056170;28;50954;-51
2021/07/10 05:19:59;;;;;;;;;6.50;6.50;;;;;24.13;44.46;101325.47;5055724;28;50957;-52
2021/07/10 05:22:24;;;;;;;;;7.00;6.50;;;;;24.13;44.47;101330.16;5055755;28;50887;-51
2021/07/10 05:24:50;;;;;;;;;7.50;6.00;;;;;24.13;44.44;101331.00;5055697;28;51195;-51
2021/07/10 05:27:15;;;;;;;;;8.00;8.00;;;;;24.13;44.52;101327.38;5056136;28;51191;-52
2021/07/10 05:29:41;;;;;;;;;7.75;7.00;;;;;24.12;44.38;101322.94;5055490;28;51906;-51
2021/07/10 05:32:07;;;;;;;;;6.25;6.25;;;;;24.12;44.69;101326.53;5055866;28;51038;-48
2021/07/10 05:34:32;;;;;;;;;8.00;8.00;;;;;24.13;44.28;101330.16;5055711;28;51242;-51
2021/07/10 05:36:57;;;;;;;;;7.50;7.25;;;;;24.12;44.45;101328.47;5055918;28;51009;-51
2021/07/10 05:39:23;;;;;;;;;9.50;8.00;;;;;24.12;44.53;101329.31;5055377;28;51080;-51
2021/07/10 05:41:49;;;;;;;;;6.75;6.75;;;;;24.12;44.69;101325.69;5055479;28;51023;-49
2021/07/10 05:44:14;;;;;;;;;6.25;6.25;;;;;24.12;44.53;101322.94;5055916;28;50967;-52
2021/07/10 05:46:39;;;;;;;;;6.25;4.50;;;;;24.12;44.86;101317.41;5055533;28;51346;-51
2021/07/10 05:49:05;;;;;;;;;5.00;5.00;;;;;24.11;44.94;101316.56;5055499;28;51805;-50
2021/07/10 05:51:31;;;;;;;;;6.75;6.75;;;;;24.09;44.71;101304.88;5055667;28;51400;-49
2021/07/10 05:53:56;;;;;;;;;7.25;6.50;;;;;24.10;44.71;101306.56;5055406;28;51047;-50
2021/07/10 05:56:21;;;;;;;;;8.00;7.25;;;;;24.12;44.55;101300.78;5054848;28;51259;-49
2021/07/10 05:58:47;;;;;;;;;11.50;9.25;;;;;24.11;44.42;101302.72;5054789;28;57332;-50
2021/07/10 06:01:12;;;;;;;;;7.25;6.75;;;;;24.12;44.93;101303.56;5055368;28;50963;-52
2021/07/10 06:03:37;;;;;;;;;6.75;6.75;;;;;24.11;44.75;101299.94;5063803;28;51691;-48
2021/07/10 06:06:03;;;;;;;;;7.75;6.50;;;;;24.11;45.02;101299.94;5075639;28;51036;-49
2021/07/10 06:08:28;;;;;;;;;8.00;5.00;;;;;24.11;44.60;101299.09;5076243;28;51950;-48
2021/07/10 06:10:54;;;;;;;;;9.75;7.50;;;;;24.11;44.94;101305.47;5078923;28;51100;-50
2021/07/10 06:13:19;;;;;;;;;6.75;5.75;;;;;24.11;45.20;101301.88;5079052;28;51019;-51
2021/07/10 06:15:44;;;;;;;;;9.25;7.00;;;;;24.11;44.88;101299.94;5078885;28;51177;-50
2021/07/10 06:18:10;;;;;;;;;7.25;7.25;;;;;24.10;44.98;101298.25;5078565;28;52672;-45
2021/07/10 06:20:37;;;;;;;;;6.00;6.00;;;;;24.10;44.99;101291.88;5078914;28;51043;-46
2021/07/10 06:23:05;;;;;;;;;7.75;6.75;;;;;24.10;44.87;101289.13;5078587;28;51150;-49
2021/07/10 06:25:31;;;;;;;;;5.50;5.50;;;;;24.10;44.57;101297.41;5078902;28;51325;-51
2021/07/10 06:27:57;;;;;;;;;9.25;6.00;;;;;24.10;44.68;101294.66;5078429;28;51757;-48
2021/07/10 06:30:22;;;;;;;;;5.50;4.00;;;;;24.08;44.85;101294.91;5078951;28;51104;-50
2021/07/10 06:32:47;;;;;;;;;4.25;3.75;;;;;24.08;44.71;101294.91;5078869;28;51170;-49
2021/07/10 06:35:13;;;;;;;;;4.25;4.25;;;;;24.08;44.54;101302.34;5078747;28;51506;-50
2021/07/10 06:37:39;;;;;;;;;7.50;5.00;;;;;24.09;44.82;101295.75;5078255;28;51031;-49
2021/07/10 06:40:07;;;;;;;;;6.25;5.25;;;;;24.07;44.52;101284.91;5078628;28;50964;-49
2021/07/10 06:42:32;;;;;;;;;6.25;6.00;;;;;24.06;44.59;101291.50;5060610;28;51301;-50
2021/07/10 06:44:58;;;;;;;;;3.25;3.25;;;;;24.05;44.28;101281.50;5078308;28;51291;-51
2021/07/10 06:47:23;;;;;;;;;5.75;4.50;;;;;24.06;44.26;101290.66;5078336;28;51859;-49
2021/07/10 06:49:48;;;;;;;;;6.00;5.00;;;;;24.06;44.56;101279.56;5078315;28;51167;-52
2021/07/10 06:52:14;;;;;;;;;6.25;6.25;;;;;24.05;44.33;101277.91;5078187;28;51041;-49
2021/07/10 06:54:39;;;;;;;;;5.50;5.50;;;;;24.06;44.18;101276.81;5078173;28;51118;-50
2021/07/10 06:57:05;;;;;;;;;4.75;4.00;;;;;24.04;44.16;101274.28;5077927;28;51060;-51
2021/07/10 06:59:31;;;;;;;;;5.75;5.75;;;;;24.05;44.29;101275.13;5078343;28;51187;-52
2021/07/10 07:01:56;;;;;;;;;3.25;3.25;;;;;24.05;44.11;101273.19;5059625;28;51088;-51
2021/07/10 07:04:21;;;;;;;;;5.75;5.00;;;;;24.04;44.46;101279.81;5062976;28;50997;-49
2021/07/10 07:06:47;;;;;;;;;5.25;4.75;;;;;24.06;44.01;101279.56;5057496;28;50958;-49
2021/07/10 07:09:13;;;;;;;;;6.00;5.00;;;;;24.05;44.12;101275.97;5057408;28;51046;-50
2021/07/10 07:11:38;;;;;;;;;6.00;4.50;;;;;24.05;44.05;101280.66;5057522;28;50986;-49
2021/07/10 07:14:03;;;;;;;;;6.25;6.00;;;;;24.06;44.03;101280.41;5057903;28;51025;-49
2021/07/10 07:16:29;;;;;;;;;6.00;5.25;;;;;24.07;44.08;101273.84;5057295;28;50986;-48
2021/07/10 07:18:54;;;;;;;;;5.00;3.50;;;;;24.07;44.06;101268.31;5057556;28;51095;-49
2021/07/10 07:21:20;;;;;;;;;7.25;6.00;;;;;24.06;44.42;101271.28;5038381;28;51160;-49
2021/07/10 07:23:45;;;;;;;;;4.00;3.50;;;;;24.07;44.29;101271.06;5057397;28;50935;-50
2021/07/10 07:26:11;;;;;;;;;3.00;3.00;;;;;24.07;43.69;101270.19;5055624;28;52106;-48
2021/07/10 07:28:37;;;;;;;;;5.25;5.25;;;;;24.07;44.12;101271.06;5056982;28;50983;-49
2021/07/10 07:31:05;;;;;;;;;5.00;5.00;;;;;24.06;43.59;101266.59;5057229;28;50950;-51
2021/07/10 07:33:31;;;;;;;;;3.00;3.00;;;;;24.07;43.73;101262.78;5057552;28;51162;-51
2021/07/10 07:35:57;;;;;;;;;4.50;4.50;;;;;24.08;43.81;101261.69;5057064;28;51456;-50
2021/07/10 07:38:22;;;;;;;;;4.00;4.00;;;;;24.08;43.87;101252.53;5056848;28;50946;-49
2021/07/10 07:40:49;;;;;;;;;4.00;4.00;;;;;24.08;43.37;101267.22;5057305;28;51066;-50
2021/07/10 07:43:14;;;;;;;;;2.50;2.25;;;;;24.08;43.20;101261.69;5057322;28;51344;-49
2021/07/10 07:45:39;;;;;;;;;4.00;4.00;;;;;24.08;43.28;101252.53;5056651;28;51792;-50
2021/07/10 07:48:05;;;;;;;;;3.00;3.00;;;;;24.07;42.58;101262.78;5056873;28;50922;-46
2021/07/10 07:50:31;;;;;;;;;4.00;4.00;;;;;24.06;42.99;101255.50;5056968;28;51124;-49
2021/07/10 07:52:56;;;;;;;;;4.25;2.00;;;;;24.06;42.62;101249.97;5056912;28;50890;-47
2021/07/10 07:55:21;;;;;;;;;3.00;2.00;;;;;24.07;43.07;101253.59;5058922;28;50978;-45
2021/07/10 07:57:47;;;;;;;;;4.00;4.00;;;;;24.05;43.03;101250.22;5063245;28;51087;-49
2021/07/10 08:00:19;;;;;;;;;3.75;3.75;;;;;24.07;42.25;101260.00;5057151;28;51206;-51
2021/07/10 08:02:44;;;;;;;;;2.00;2.00;;;;;24.05;42.29;101253.84;5057958;28;50994;-49
2021/07/10 08:05:10;;;;;;;;;2.00;2.00;;;;;24.05;42.29;101242.75;5067553;28;51071;-48
2021/07/10 08:07:36;;;;;;;;;3.00;3.00;;;;;24.05;42.62;101253.84;5064709;28;51407;-47
2021/07/10 08:10:02;;;;;;;;;2.00;2.00;;;;;24.05;42.24;101256.59;5073815;28;50958;-46
2021/07/10 08:12:28;;;;;;;;;2.75;2.75;;;;;24.05;42.23;101242.75;5077169;28;51237;-51
2021/07/10 08:14:53;;;;;;;;;4.00;2.50;;;;;24.05;42.14;101250.22;5073993;28;51954;-47
2021/07/10 08:17:19;;;;;;;;;3.00;3.00;;;;;24.05;42.28;101255.75;5074448;28;51203;-49
2021/07/10 08:19:44;;;;;;;;;2.25;2.25;;;;;24.03;42.07;101253.22;5075480;28;51349;-49
2021/07/10 08:22:09;;;;;;;;;3.00;3.00;;;;;24.04;42.12;101248.53;5075245;28;51108;-50
2021/07/10 08:24:35;;;;;;;;;2.75;2.25;;;;;24.03;41.96;101249.63;5067433;28;51252;-50
2021/07/10 08:27:00;;;;;;;;;3.00;3.00;;;;;24.04;41.77;101251.31;5076285;28;51032;-51
2021/07/10 08:29:26;;;;;;;;;3.75;3.75;;;;;24.03;41.87;101241.31;5075571;28;51647;-49
2021/07/10 08:31:51;;;;;;;;;3.00;3.00;;;;;23.97;41.64;101236.72;5075212;28;51070;-51
2021/07/10 08:34:16;;;;;;;;;3.50;3.00;;;;;23.82;41.52;101240.78;5074908;28;51012;-49
2021/07/10 08:36:42;;;;;;;;;4.00;3.75;;;;;23.73;41.70;101233.03;5064974;28;52242;-49
2021/07/10 08:39:08;;;;;;;;;2.75;2.75;;;;;23.66;41.91;101232.31;5066701;28;51186;-48
2021/07/10 08:41:34;;;;;;;;;4.00;4.00;;;;;23.59;42.01;101240.69;5073204;28;51149;-52
2021/07/10 08:44:00;;;;;;;;;4.75;3.50;;;;;23.52;42.46;101234.34;5055683;28;52449;-49
2021/07/10 08:46:25;;;;;;;;;2.00;2.00;;;;;23.45;42.12;101228.94;5071888;28;51373;-48
2021/07/10 08:48:50;;;;;;;;;4.50;4.50;;;;;23.38;41.93;101238.38;5069098;28;51237;-51
2021/07/10 08:51:17;;;;;;;;;4.75;3.25;;;;;23.33;42.52;101239.91;5070169;28;51075;-50
2021/07/10 08:53:43;;;;;;;;;5.00;3.00;;;;;23.26;42.68;101238.31;5074316;28;51872;-47
2021/07/10 08:56:09;;;;;;;;;2.00;2.00;;;;;23.21;42.73;101243.69;5069145;28;51285;-50
2021/07/10 08:58:36;;;;;;;;;10.00;7.00;;;;;23.20;42.64;101247.53;5071098;28;52200;-50
2021/07/10 09:01:04;;;;;;;;;5.00;4.50;;;;;23.20;42.94;101250.28;5072640;27;51594;-50
2021/07/10 09:03:30;;;;;;;;;8.00;7.25;;;;;23.19;43.15;101254.13;5072924;28;51007;-47
2021/07/10 09:05:56;;;;;;;;;5.00;5.00;;;;;23.16;42.82;101254.59;5073473;28;51310;-50
2021/07/10 09:08:27;;;;;;;;;5.00;5.00;;;;;23.10;42.76;101253.59;5071686;28;51128;-52
2021/07/10 09:10:55;;;;;;;;;3.50;3.50;;;;;23.01;43.17;101254.97;5071243;28;51196;-48
2021/07/10 09:13:29;;;;;;;;;5.50;4.00;;;;;22.91;42.98;101260.19;5067806;28;51842;-48
2021/07/10 09:16:01;;;;;;;;;2.50;2.50;;;;;22.82;42.67;101265.13;5072760;28;51274;-44
2021/07/10 09:18:35;;;;;;;;;2.00;2.00;;;;;22.74;42.85;101271.81;5072866;27;51284;-47
2021/07/10 09:21:01;;;;;;;;;4.75;3.75;;;;;22.66;43.12;101276.75;5075432;27;51436;-51
2021/07/10 09:23:38;;;;;;;;;3.25;2.00;;;;;22.54;44.18;101278.56;5072684;28;52513;-48
2021/07/10 09:26:20;;;;;;;;;3.00;2.75;;;;;22.42;44.37;101279.31;5071030;28;51425;-50
2021/07/10 09:28:56;;;;;;;;;2.50;2.50;;;;;22.38;45.23;101266.16;5073919;28;51344;-47
2021/07/10 09:31:28;;;;;;;;;3.75;2.75;;;;;22.36;45.42;101266.41;5068464;28;51181;-50
2021/07/10 09:34:15;;;;;;;;;3.00;3.00;;;;;22.35;45.23;101269.38;5074103;28;51875;-47
2021/07/10 09:36:52;;;;;;;;;3.75;3.75;;;;;22.32;45.83;101254.13;5075137;28;51092;-50
2021/07/10 09:39:18;;;;;;;;;3.75;3.75;;;;;22.33;45.90;101244.78;5075094;28;51060;-49
2021/07/10 09:41:43;;;;;;;;;4.00;4.00;;;;;22.38;45.58;101249.59;5062669;28;51375;-49
2021/07/10 09:44:12;;;;;;;;;8.50;5.00;;;;;22.42;46.14;101242.56;5077011;28;51137;-50
2021/07/10 09:46:39;;;;;;;;;6.25;5.00;;;;;22.43;46.46;101235.97;5060218;28;51322;-50
2021/07/10 09:49:25;;;;;;;;;5.50;4.50;;;;;22.37;46.60;101232.19;5076532;28;51186;-47
2021/07/10 09:52:17;;;;;;;;;7.00;7.00;;;;;22.32;46.24;101229.28;5076364;28;51299;-48
2021/07/10 09:55:06;;;;;;;;;4.00;4.00;;;;;22.28;46.84;101222.50;5076799;28;51908;-49
2021/07/10 09:57:35;;;;;;;;;5.00;3.75;;;;;22.25;46.76;101224.88;5057884;28;51386;-49
2021/07/10 10:00:12;;;;;;;;;4.25;3.00;;;;;22.28;46.09;101233.53;5075185;28;51165;-51
2021/07/10 10:02:49;;;;;;;;;4.00;4.00;;;;;22.34;46.61;101240.94;5078290;28;51130;-50
2021/07/10 10:05:18;;;;;;;;;4.50;3.75;;;;;22.38;46.41;101236.66;5053566;28;52853;-50
2021/07/10 10:07:50;;;;;;;;;3.00;3.00;;;;;22.39;46.98;101221.78;5071456;28;51251;-48
2021/07/10 10:10:25;;;;;;;;;6.00;5.00;;;;;22.36;47.14;101218.63;5076165;28;51079;-49
2021/07/10 10:13:05;;;;;;;;;3.00;3.00;;;;;22.29;47.46;101209.56;5071898;28;51254;-50
2021/07/10 10:15:31;;;;;;;;;5.00;4.50;;;;;22.12;47.04;101207.38;5057295;28;52789;-50
2021/07/10 10:17:57;;;;;;;;;4.00;4.00;;;;;21.93;47.44;101221.28;5074798;28;51423;-46
2021/07/10 10:20:23;;;;;;;;;5.50;4.00;;;;;21.77;47.85;101231.75;5078278;28;51184;-52
2021/07/10 10:22:49;;;;;;;;;4.00;4.00;;;;;21.66;47.70;101234.38;5077084;28;51119;-50
2021/07/10 10:25:16;;;;;;;;;4.00;3.00;;;;;21.54;48.16;101225.97;5077342;28;51967;-48
2021/07/10 10:27:45;;;;;;;;;7.00;4.00;;;;;21.48;48.77;101221.34;5077421;28;51152;-49
2021/07/10 10:30:11;;;;;;;;;2.00;2.00;;;;;21.42;48.24;101236.84;5059419;28;51136;-48
2021/07/10 10:32:37;;;;;;;;;5.00;5.00;;;;;21.37;48.75;101235.81;5078349;28;50944;-49
2021/07/10 10:35:03;;;;;;;;;4.00;4.00;;;;;21.29;48.58;101228.63;5077599;28;51118;-49
2021/07/10 10:37:28;;;;;;;;;8.50;6.00;;;;;21.26;48.70;101226.31;5077452;28;51094;-49
2021/07/10 10:39:54;;;;;;;;;4.50;4.50;;;;;21.22;48.48;101225.88;5077516;28;51063;-48
2021/07/10 10:42:24;;;;;;;;;3.75;3.75;;;;;21.16;48.53;101221.25;5078127;28;51197;-47
2021/07/10 10:44:55;;;;;;;;;4.50;4.50;;;;;21.09;48.87;101205.78;5076925;28;50946;-50
2021/07/10 10:47:23;;;;;;;;;7.75;6.50;;;;;21.06;49.07;101214.50;5077583;28;51183;-52
2021/07/10 10:49:54;;;;;;;;;5.75;4.75;;;;;21.00;49.14;101197.78;5077492;28;50890;-51
2021/07/10 10:52:42;;;;;;;;;4.50;3.50;;;;;20.98;49.34;101215.56;5077693;28;51199;-50
2021/07/10 10:55:16;;;;;;;;;3.75;3.25;;;;;20.97;49.25;101211.13;5075300;28;51707;-51
2021/07/10 10:57:49;;;;;;;;;3.75;3.25;;;;;21.03;49.04;101207.50;5076593;28;51071;-51
2021/07/10 11:00:23;;;;;;;;;3.50;3.50;;;;;21.14;49.75;101200.47;5077403;28;51100;-48
2021/07/10 11:02:54;;;;;;;;;7.25;5.75;;;;;21.16;49.98;101201.97;5076048;28;50981;-45
2021/07/10 11:05:31;;;;;;;;;4.00;4.00;;;;;21.11;49.76;101190.72;5075243;28;51971;-48
2021/07/10 11:08:33;;;;;;;;;7.50;5.50;;;;;21.12;49.71;101205.34;5058220;28;51276;-50
2021/07/10 11:10:58;;;;;;;;;4.75;4.75;;;;;21.17;50.08;101200.91;5036700;28;51408;-50
2021/07/10 11:13:37;;;;;;;;;5.00;5.00;;;;;21.22;49.84;101201.06;5072943;28;52364;-49
2021/07/10 11:16:12;;;;;;;;;7.00;6.00;;;;;21.35;49.48;101207.59;5075033;28;51049;-49
2021/07/10 11:19:03;;;;;;;;;7.00;6.25;;;;;21.39;49.54;101204.22;5046339;28;51166;-46
2021/07/10 11:21:31;;;;;;;;;6.25;4.75;;;;;21.40;48.93;101199.53;5074979;28;51238;-49